createdAt,value
2023-05-06T00:03:03.319Z,8.80
2023-05-06T00:08:06.418Z,8.90
2023-05-06T00:13:09.677Z,11.30
2023-05-06T00:18:12.687Z,8.60
2023-05-06T00:23:15.722Z,10.00
2023-05-06T00:28:18.670Z,10.40
2023-05-06T00:33:21.638Z,8.90
2023-05-06T00:38:24.601Z,12.00
2023-05-06T00:43:27.568Z,14.20
2023-05-06T00:48:30.649Z,15.20
2023-05-06T00:53:33.975Z,24.80
2023-05-06T00:58:37.708Z,17.70
2023-05-06T01:03:40.752Z,24.10
2023-05-06T01:09:06.182Z,19.70
2023-05-06T01:14:33.376Z,17.60
2023-05-06T01:19:46.757Z,17.50
2023-05-06T01:24:49.730Z,13.90
2023-05-06T01:29:52.814Z,10.10
2023-05-06T01:35:03.423Z,14.30
2023-05-06T01:40:07.777Z,11.10
2023-05-06T01:45:12.874Z,10.50
2023-05-06T01:50:16.022Z,11.30
2023-05-06T01:55:19.070Z,10.40
2023-05-06T02:00:22.531Z,13.20
2023-05-06T02:05:26.524Z,15.10
2023-05-06T02:10:29.475Z,14.40
2023-05-06T02:15:32.443Z,15.80
2023-05-06T02:20:35.498Z,20.80
2023-05-06T02:25:38.457Z,16.90
2023-05-06T02:30:41.475Z,16.60
2023-05-06T02:35:44.403Z,16.70
2023-05-06T02:40:47.314Z,12.00
2023-05-06T02:45:50.367Z,12.20
2023-05-06T02:50:53.409Z,13.10
2023-05-06T02:55:56.328Z,8.40
2023-05-06T03:00:59.306Z,8.30
2023-05-06T03:06:02.435Z,6.70
2023-05-06T03:11:07.882Z,8.10
2023-05-06T03:16:14.410Z,8.20
2023-05-06T03:21:17.449Z,6.30
2023-05-06T03:26:21.531Z,8.20
2023-05-06T03:31:24.712Z,10.30
2023-05-06T03:36:28.189Z,6.60
2023-05-06T03:41:31.597Z,7.00
2023-05-06T03:46:34.718Z,7.10
2023-05-06T03:51:37.889Z,7.50
2023-05-06T03:56:40.951Z,7.40
2023-05-06T04:01:43.919Z,7.60
2023-05-06T04:06:47.120Z,7.00
2023-05-06T04:11:50.095Z,9.10
2023-05-06T04:16:53.025Z,7.40
2023-05-06T04:21:55.996Z,7.40
2023-05-06T04:26:58.946Z,6.70
2023-05-06T04:32:03.018Z,8.90
2023-05-06T04:37:07.193Z,6.40
2023-05-06T04:42:10.511Z,6.00
2023-05-06T04:47:13.507Z,7.00
2023-05-06T04:52:16.454Z,5.40
2023-05-06T04:57:19.403Z,8.10
2023-05-06T05:02:22.526Z,6.30
2023-05-06T05:07:25.617Z,7.60
2023-05-06T05:12:28.582Z,6.80
2023-05-06T05:17:31.807Z,6.50
2023-05-06T05:22:34.850Z,8.10
2023-05-06T05:27:37.803Z,7.50
2023-05-06T05:32:40.794Z,8.20
2023-05-06T05:37:43.803Z,8.10
2023-05-06T05:42:46.776Z,7.80
2023-05-06T05:47:49.762Z,6.40
2023-05-06T05:52:52.707Z,7.20
2023-05-06T05:57:55.826Z,11.80
2023-05-06T06:02:58.921Z,17.80
2023-05-06T06:08:03.808Z,6.90
2023-05-06T06:13:07.104Z,7.20
2023-05-06T06:18:10.153Z,5.10
2023-05-06T06:23:13.130Z,5.90
2023-05-06T06:28:16.452Z,6.70
2023-05-06T06:33:19.458Z,9.80
2023-05-06T06:38:22.454Z,13.00
2023-05-06T06:43:25.436Z,5.20
2023-05-06T06:48:28.388Z,8.30
2023-05-06T06:53:31.300Z,7.60
2023-05-06T06:58:34.252Z,10.40
2023-05-06T07:03:37.350Z,12.70
2023-05-06T07:08:40.325Z,10.50
2023-05-06T07:13:43.250Z,8.30
2023-05-06T07:18:46.406Z,8.20
2023-05-06T07:23:49.422Z,11.10
2023-05-06T07:28:52.481Z,9.50
2023-05-06T07:33:55.701Z,7.30
2023-05-06T07:38:58.627Z,11.30
2023-05-06T07:44:02.167Z,5.20
2023-05-06T07:54:07.985Z,5.40
2023-05-06T07:59:11.914Z,6.00
2023-05-06T08:04:14.945Z,7.80
2023-05-06T08:09:22.692Z,6.70
2023-05-06T08:14:26.333Z,7.80
2023-05-06T08:19:29.284Z,6.50
2023-05-06T08:24:32.355Z,6.80
2023-05-06T08:29:35.420Z,4.80
2023-05-06T08:34:38.338Z,6.60
2023-05-06T08:39:41.844Z,6.60
2023-05-06T08:44:44.812Z,6.90
2023-05-06T08:49:48.814Z,8.20
2023-05-06T08:54:55.104Z,8.30
2023-05-06T08:59:58.516Z,6.30
2023-05-06T09:10:13.703Z,12.50
2023-05-06T09:15:16.737Z,7.20
2023-05-06T09:20:19.961Z,10.20
2023-05-06T09:25:23.000Z,10.20
2023-05-06T09:30:26.794Z,17.60
2023-05-06T09:35:36.389Z,10.70
2023-05-06T09:40:39.735Z,9.80
2023-05-06T09:45:43.309Z,21.20
2023-05-06T09:50:47.501Z,14.30
2023-05-06T09:55:52.245Z,15.90
2023-05-06T10:00:56.179Z,23.70
2023-05-06T10:06:02.317Z,16.50
2023-05-06T10:11:06.686Z,18.90
2023-05-06T10:16:10.941Z,18.10
2023-05-06T10:21:22.221Z,11.90
2023-05-06T10:26:28.749Z,15.40
2023-05-06T10:31:34.035Z,12.00
2023-05-06T10:36:39.097Z,13.80
2023-05-06T10:41:43.255Z,16.20
2023-05-06T10:47:00.875Z,18.50
2023-05-06T10:52:13.470Z,13.20
2023-05-06T10:57:22.034Z,19.70
2023-05-06T11:02:25.456Z,10.60
2023-05-06T11:07:28.731Z,12.40
2023-05-06T11:12:52.875Z,14.70
2023-05-06T11:17:56.885Z,17.30
2023-05-06T11:23:02.875Z,10.30
2023-05-06T11:28:13.929Z,11.40
2023-05-06T11:33:23.158Z,30.80
2023-05-06T11:38:27.554Z,10.60
2023-05-06T11:43:30.517Z,7.60
2023-05-06T11:48:33.480Z,11.30
2023-05-06T11:53:37.553Z,9.40
2023-05-06T11:58:40.495Z,14.80
2023-05-06T12:03:43.591Z,15.00
2023-05-06T12:08:46.935Z,17.50
2023-05-06T12:13:50.195Z,16.10
2023-05-06T12:18:54.844Z,14.10
2023-05-06T12:24:00.355Z,8.50
2023-05-06T12:29:09.984Z,14.80
2023-05-06T12:34:18.540Z,18.10
2023-05-06T12:39:34.567Z,19.40
2023-05-06T12:44:40.284Z,10.50
2023-05-06T12:49:48.994Z,16.50
2023-05-06T12:54:53.016Z,12.40
2023-05-06T12:59:56.504Z,15.20
2023-05-06T13:04:59.497Z,9.50
2023-05-06T13:10:03.652Z,14.60
2023-05-06T13:15:07.834Z,20.00
2023-05-06T13:20:13.418Z,11.20
2023-05-06T13:25:16.663Z,13.70
2023-05-06T13:30:19.704Z,13.40
2023-05-06T13:35:22.698Z,9.70
2023-05-06T13:40:25.640Z,9.90
2023-05-06T13:45:28.728Z,9.40
2023-05-06T13:50:31.685Z,9.10
2023-05-06T13:55:34.675Z,9.90
2023-05-06T14:00:37.697Z,10.30
2023-05-06T14:05:40.805Z,9.40
2023-05-06T14:10:43.922Z,9.30
2023-05-06T14:15:46.969Z,8.60
2023-05-06T14:20:49.929Z,13.00
2023-05-06T14:25:52.896Z,14.70
2023-05-06T14:30:57.045Z,14.90
2023-05-06T14:36:03.367Z,13.10
2023-05-06T14:41:06.609Z,11.40
2023-05-06T14:46:09.658Z,24.50
2023-05-06T14:51:12.708Z,21.30
2023-05-06T14:56:15.744Z,18.40
2023-05-06T15:01:19.023Z,10.40
2023-05-06T15:06:22.108Z,10.30
2023-05-06T15:11:25.130Z,11.70
2023-05-06T15:16:28.180Z,12.10
2023-05-06T15:21:31.512Z,10.70
2023-05-06T15:26:34.492Z,11.50
2023-05-06T15:31:41.031Z,12.10
2023-05-06T15:36:44.328Z,13.20
2023-05-06T15:41:48.604Z,13.50
2023-05-06T15:46:52.781Z,13.50
2023-05-06T15:51:59.106Z,15.60
2023-05-06T15:57:07.401Z,15.90
2023-05-06T16:07:16.755Z,18.80
2023-05-06T16:12:19.732Z,13.90
2023-05-06T16:17:22.865Z,15.60
2023-05-06T16:22:25.840Z,19.20
2023-05-06T16:27:28.957Z,20.80
2023-05-06T16:32:32.141Z,33.40
2023-05-06T16:37:39.498Z,13.30
2023-05-06T16:42:42.939Z,15.40
2023-05-06T16:47:46.458Z,17.90
2023-05-06T16:52:53.076Z,14.90
2023-05-06T16:58:00.218Z,18.10
2023-05-06T17:03:03.981Z,15.30
2023-05-06T17:08:07.413Z,13.60
2023-05-06T17:13:10.505Z,12.70
2023-05-06T17:18:20.375Z,10.50
2023-05-06T17:23:23.756Z,11.60
2023-05-06T17:28:26.823Z,9.80
2023-05-06T17:33:29.767Z,12.40
2023-05-06T17:38:36.593Z,11.40
2023-05-06T17:43:39.781Z,11.80
2023-05-06T17:48:42.796Z,10.00
2023-05-06T17:53:45.948Z,13.10
2023-05-06T17:58:48.923Z,9.70
2023-05-06T18:03:51.957Z,10.00
2023-05-06T18:08:54.907Z,9.50
2023-05-06T18:13:57.853Z,11.30
2023-05-06T18:19:02.645Z,10.80
2023-05-06T18:24:16.132Z,11.80
2023-05-06T18:29:19.712Z,12.10
2023-05-06T18:34:22.668Z,9.90
2023-05-06T18:39:26.098Z,9.70
2023-05-06T18:44:29.217Z,10.00
2023-05-06T18:49:32.216Z,11.80
2023-05-06T18:54:35.252Z,10.60
2023-05-06T18:59:38.226Z,8.30
2023-05-06T19:04:41.140Z,10.40
2023-05-06T19:09:44.178Z,9.20
2023-05-06T19:14:47.210Z,9.70
2023-05-06T19:19:50.146Z,9.00
2023-05-06T19:24:53.118Z,9.00
2023-05-06T19:29:56.661Z,8.60
2023-05-06T19:35:08.425Z,10.20
2023-05-06T19:40:12.453Z,8.90
2023-05-06T19:45:17.519Z,8.90
2023-05-06T19:50:22.247Z,10.10
2023-05-06T19:55:25.228Z,8.70
2023-05-06T20:00:30.475Z,8.00
2023-05-06T20:05:33.731Z,9.40
2023-05-06T20:10:37.255Z,8.40
2023-05-06T20:15:43.384Z,7.70
2023-05-06T20:20:47.284Z,7.40
2023-05-06T20:25:50.251Z,7.80
2023-05-06T20:30:53.283Z,8.10
2023-05-06T20:35:56.408Z,7.90
2023-05-06T20:40:59.419Z,8.20
2023-05-06T20:46:02.591Z,8.60
2023-05-06T20:51:05.891Z,7.70
2023-05-06T20:56:21.006Z,7.60
2023-05-06T21:01:25.693Z,6.10
2023-05-06T21:06:28.936Z,6.90
2023-05-06T21:11:31.862Z,7.30
2023-05-06T21:16:35.190Z,7.60
2023-05-06T21:21:38.220Z,7.70
2023-05-06T21:26:41.199Z,6.40
2023-05-06T21:31:51.933Z,5.70
2023-05-06T21:36:54.861Z,7.20
2023-05-06T21:41:57.950Z,6.40
2023-05-06T21:47:00.908Z,7.50
2023-05-06T21:52:05.111Z,6.60
2023-05-06T21:57:08.195Z,5.30
2023-05-06T22:02:11.238Z,6.50
2023-05-06T22:07:14.320Z,4.90
2023-05-06T22:12:17.286Z,4.60
2023-05-06T22:17:20.272Z,5.00
2023-05-06T22:22:23.273Z,4.80
2023-05-06T22:27:26.221Z,5.80
2023-05-06T22:32:29.256Z,4.10
2023-05-06T22:37:32.259Z,4.60
2023-05-06T22:42:35.244Z,4.60
2023-05-06T22:47:38.507Z,5.20
2023-05-06T22:52:41.604Z,5.10
2023-05-06T22:57:44.885Z,5.80
2023-05-06T23:02:47.884Z,5.30
2023-05-06T23:07:50.909Z,4.90
2023-05-06T23:12:53.961Z,3.80
2023-05-06T23:17:56.970Z,3.70
2023-05-06T23:23:00.126Z,5.00
2023-05-06T23:28:03.147Z,4.20
2023-05-06T23:33:07.133Z,5.00
2023-05-06T23:38:10.171Z,7.00
2023-05-06T23:43:13.131Z,5.80
2023-05-06T23:48:16.085Z,5.20
2023-05-06T23:53:19.085Z,5.00
2023-05-06T23:58:22.081Z,3.60
